createdAt,value
2023-05-16T00:01:00.933Z,100523.25
2023-05-16T00:04:03.443Z,100522.47
2023-05-16T00:07:05.505Z,100527.47
2023-05-16T00:10:07.922Z,100542.38
2023-05-16T00:13:09.348Z,100531.88
2023-05-16T00:16:13.886Z,100537.72
2023-05-16T00:19:15.351Z,100536.63
2023-05-16T00:22:17.025Z,100548.50
2023-05-16T00:25:18.540Z,100542.97
2023-05-16T00:28:19.918Z,100552.34
2023-05-16T00:31:22.067Z,100547.41
2023-05-16T00:34:23.468Z,100547.66
2023-05-16T00:37:24.995Z,100547.06
2023-05-16T00:40:27.749Z,100554.28
2023-05-16T00:43:29.184Z,100554.84
2023-05-16T00:46:31.273Z,100552.09
2023-05-16T00:49:32.686Z,100563.50
2023-05-16T00:52:35.488Z,100551.31
2023-05-16T00:55:37.555Z,100565.16
2023-05-16T00:58:39.120Z,100574.31
2023-05-16T01:01:41.394Z,100576.19
2023-05-16T01:04:43.606Z,100581.78
2023-05-16T01:07:45.053Z,100571.56
2023-05-16T01:10:53.213Z,100576.53
2023-05-16T01:14:09.129Z,100579.88
2023-05-16T01:17:20.166Z,100576.06
2023-05-16T01:20:32.795Z,100583.50
2023-05-16T01:23:47.021Z,100581.28
2023-05-16T01:26:49.929Z,100585.16
2023-05-16T01:29:55.564Z,100595.63
2023-05-16T01:32:56.934Z,100592.88
2023-05-16T01:36:06.536Z,100604.44
2023-05-16T01:39:15.230Z,100601.16
2023-05-16T01:42:21.035Z,100615.47
2023-05-16T01:45:27.963Z,100614.38
2023-05-16T01:48:35.911Z,100609.13
2023-05-16T01:51:40.957Z,100625.88
2023-05-16T01:54:45.375Z,100625.59
2023-05-16T01:57:49.785Z,100618.13
2023-05-16T02:00:52.843Z,100629.69
2023-05-16T02:03:54.461Z,100639.28
2023-05-16T02:06:56.687Z,100652.25
2023-05-16T02:09:58.084Z,100649.19
2023-05-16T02:13:00.032Z,100658.84
2023-05-16T02:16:01.518Z,100657.13
2023-05-16T02:19:02.814Z,100667.56
2023-05-16T02:22:04.610Z,100663.47
2023-05-16T02:25:06.915Z,100662.91
2023-05-16T02:28:08.876Z,100677.22
2023-05-16T02:31:10.374Z,100668.97
2023-05-16T02:34:11.741Z,100673.03
2023-05-16T02:37:13.431Z,100672.16
2023-05-16T02:40:15.137Z,100679.59
2023-05-16T02:43:17.199Z,100683.69
2023-05-16T02:46:23.304Z,100689.19
2023-05-16T02:49:24.690Z,100688.31
2023-05-16T02:52:26.188Z,100706.31
2023-05-16T02:55:27.916Z,100699.69
2023-05-16T02:58:29.902Z,100706.25
2023-05-16T03:01:31.325Z,100713.72
2023-05-16T03:04:32.815Z,100715.06
2023-05-16T03:07:34.260Z,100719.78
2023-05-16T03:10:35.627Z,100722.53
2023-05-16T03:13:37.678Z,100721.09
2023-05-16T03:16:41.046Z,100734.13
2023-05-16T03:19:42.373Z,100739.59
2023-05-16T03:22:44.589Z,100747.00
2023-05-16T03:25:46.009Z,100751.06
2023-05-16T03:28:48.179Z,100755.75
2023-05-16T03:31:49.678Z,100756.81
2023-05-16T03:34:51.860Z,100763.41
2023-05-16T03:37:53.439Z,100756.97
2023-05-16T03:40:54.723Z,100765.16
2023-05-16T03:43:56.781Z,100762.53
2023-05-16T03:46:58.223Z,100758.69
2023-05-16T03:49:59.614Z,100758.41
2023-05-16T03:53:01.019Z,100751.28
2023-05-16T03:56:03.314Z,100754.09
2023-05-16T03:59:05.378Z,100748.03
2023-05-16T04:02:07.405Z,100760.59
2023-05-16T04:05:09.722Z,100762.59
2023-05-16T04:08:11.221Z,100758.00
2023-05-16T04:11:12.525Z,100762.41
2023-05-16T04:14:14.906Z,100771.41
2023-05-16T04:17:16.188Z,100763.41
2023-05-16T04:20:17.640Z,100776.88
2023-05-16T04:23:19.076Z,100774.69
2023-05-16T04:26:21.780Z,100793.31
2023-05-16T04:29:23.841Z,100803.75
2023-05-16T04:32:25.318Z,100815.28
2023-05-16T04:35:28.052Z,100810.19
2023-05-16T04:38:29.656Z,100823.53
2023-05-16T04:41:31.136Z,100823.25
2023-05-16T04:44:33.823Z,100835.97
2023-05-16T04:47:36.026Z,100825.06
2023-05-16T04:50:37.452Z,100829.94
2023-05-16T04:53:38.717Z,100833.59
2023-05-16T04:56:40.094Z,100830.97
2023-05-16T04:59:42.314Z,100841.66
2023-05-16T05:02:44.022Z,100852.41
2023-05-16T05:05:45.744Z,100862.94
2023-05-16T05:08:47.256Z,100861.03
2023-05-16T05:11:48.568Z,100863.38
2023-05-16T05:14:50.714Z,100869.47
2023-05-16T05:17:52.257Z,100870.84
2023-05-16T05:20:53.892Z,100890.69
2023-05-16T05:23:55.194Z,100887.94
2023-05-16T05:26:57.143Z,100888.22
2023-05-16T05:29:59.178Z,100889.06
2023-05-16T05:33:00.648Z,100903.44
2023-05-16T05:36:03.973Z,100901.81
2023-05-16T05:39:06.201Z,100896.91
2023-05-16T05:42:07.784Z,100897.25
2023-05-16T05:45:11.091Z,100907.13
2023-05-16T05:48:12.701Z,100918.88
2023-05-16T05:51:14.356Z,100928.25
2023-05-16T05:54:15.751Z,100928.09
2023-05-16T05:57:17.112Z,100921.53
2023-05-16T06:00:19.589Z,100931.53
2023-05-16T06:03:20.952Z,100934.75
2023-05-16T06:06:22.437Z,100935.72
2023-05-16T06:09:23.745Z,100940.88
2023-05-16T06:12:25.140Z,100944.81
2023-05-16T06:15:27.351Z,100950.59
2023-05-16T06:18:29.199Z,100949.31
2023-05-16T06:21:30.544Z,100958.59
2023-05-16T06:24:31.904Z,100954.38
2023-05-16T06:27:33.367Z,100967.69
2023-05-16T06:30:35.532Z,100957.47
2023-05-16T06:33:36.810Z,100957.78
2023-05-16T06:36:38.352Z,100952.34
2023-05-16T06:39:39.653Z,100954.34
2023-05-16T06:42:41.129Z,100963.19
2023-05-16T06:45:44.436Z,100966.03
2023-05-16T06:48:45.765Z,100970.34
2023-05-16T06:51:47.091Z,100973.16
2023-05-16T06:54:48.454Z,100971.56
2023-05-16T06:57:49.829Z,100989.06
2023-05-16T07:00:51.960Z,101000.25
2023-05-16T07:03:53.672Z,100998.72
2023-05-16T07:06:55.243Z,100997.41
2023-05-16T07:09:56.564Z,101004.47
2023-05-16T07:12:58.091Z,100997.94
2023-05-16T07:16:00.286Z,100999.13
2023-05-16T07:19:01.912Z,101005.00
2023-05-16T07:22:03.658Z,101010.75
2023-05-16T07:25:06.155Z,101013.38
2023-05-16T07:28:07.590Z,101023.38
2023-05-16T07:31:09.673Z,101011.63
2023-05-16T07:34:11.474Z,101022.34
2023-05-16T07:37:13.186Z,101029.44
2023-05-16T07:40:14.567Z,101028.47
2023-05-16T07:43:16.026Z,101036.69
2023-05-16T07:46:18.043Z,101030.88
2023-05-16T07:49:19.504Z,101027.38
2023-05-16T07:52:20.844Z,101029.09
2023-05-16T07:55:22.754Z,101027.06
2023-05-16T07:58:24.285Z,101023.78
2023-05-16T08:01:26.397Z,101021.66
2023-05-16T08:04:28.466Z,101034.41
2023-05-16T08:07:30.853Z,101031.91
2023-05-16T08:10:32.427Z,101032.84
2023-05-16T08:13:33.932Z,101041.66
2023-05-16T08:16:36.279Z,101051.38
2023-05-16T08:19:37.838Z,101040.94
2023-05-16T08:22:39.336Z,101039.03
2023-05-16T08:25:40.680Z,101067.59
2023-05-16T08:28:42.666Z,101058.16
2023-05-16T08:31:44.776Z,101071.19
2023-05-16T08:34:46.316Z,101070.22
2023-05-16T08:37:47.861Z,101074.22
2023-05-16T08:40:49.240Z,101082.50
2023-05-16T08:43:50.847Z,101087.50
2023-05-16T08:46:54.390Z,101085.81
2023-05-16T08:49:57.822Z,101078.34
2023-05-16T08:53:06.592Z,101085.53
2023-05-16T08:56:09.605Z,101082.84
2023-05-16T08:59:11.913Z,101076.28
2023-05-16T09:02:14.106Z,101074.69
2023-05-16T09:05:16.855Z,101065.06
2023-05-16T09:08:19.607Z,101065.56
2023-05-16T09:11:21.295Z,101074.09
2023-05-16T09:14:22.835Z,101081.88
2023-05-16T09:17:38.684Z,101074.72
2023-05-16T09:20:46.381Z,101075.13
2023-05-16T09:23:49.172Z,101075.41
2023-05-16T09:26:50.647Z,101087.53
2023-05-16T09:29:51.992Z,101078.97
2023-05-16T09:32:54.184Z,101083.38
2023-05-16T09:35:57.111Z,101091.41
2023-05-16T09:38:58.687Z,101094.59
2023-05-16T09:42:00.138Z,101095.44
2023-05-16T09:45:04.671Z,101098.53
2023-05-16T09:48:08.377Z,101093.22
2023-05-16T09:51:12.409Z,101099.22
2023-05-16T09:54:13.936Z,101104.47
2023-05-16T09:57:18.321Z,101112.84
2023-05-16T10:00:20.099Z,101112.91
2023-05-16T10:03:23.024Z,101118.16
2023-05-16T10:06:25.658Z,101111.47
2023-05-16T10:09:28.142Z,101128.78
2023-05-16T10:12:31.421Z,101113.63
2023-05-16T10:15:33.938Z,101129.59
2023-05-16T10:18:37.852Z,101130.16
2023-05-16T10:21:45.352Z,101125.19
2023-05-16T10:24:51.650Z,101133.41
2023-05-16T10:27:54.636Z,101131.91
2023-05-16T10:30:56.895Z,101137.19
2023-05-16T10:33:59.594Z,101137.50
2023-05-16T10:37:01.807Z,101138.72
2023-05-16T10:40:05.116Z,101133.22
2023-05-16T10:43:08.132Z,101140.78
2023-05-16T10:46:11.044Z,101146.69
2023-05-16T10:49:24.041Z,101143.25
2023-05-16T10:52:33.366Z,101143.59
2023-05-16T10:55:36.062Z,101140.34
2023-05-16T10:58:44.711Z,101150.31
2023-05-16T11:01:52.592Z,101144.16
2023-05-16T11:04:56.321Z,101137.00
2023-05-16T11:08:04.263Z,101136.13
2023-05-16T11:11:38.967Z,101129.84
2023-05-16T11:14:42.729Z,101131.50
2023-05-16T11:17:46.091Z,101129.31
2023-05-16T11:20:52.103Z,101130.59
2023-05-16T11:24:27.019Z,101131.16
2023-05-16T11:27:30.245Z,101132.47
2023-05-16T11:30:32.423Z,101133.28
2023-05-16T11:33:35.622Z,101151.97
2023-05-16T11:36:39.740Z,101158.69
2023-05-16T11:39:41.333Z,101156.59
2023-05-16T11:42:44.653Z,101163.84
2023-05-16T11:45:46.740Z,101148.00
2023-05-16T11:48:48.627Z,101137.72
2023-05-16T11:51:53.814Z,101146.22
2023-05-16T11:54:57.289Z,101149.47
2023-05-16T11:57:59.245Z,101142.94
2023-05-16T12:01:04.244Z,101151.97
2023-05-16T12:04:09.096Z,101149.63
2023-05-16T12:07:11.259Z,101144.34
2023-05-16T12:10:14.328Z,101143.59
2023-05-16T12:13:16.767Z,101138.59
2023-05-16T12:16:18.725Z,101153.91
2023-05-16T12:19:21.337Z,101140.84
2023-05-16T12:22:25.546Z,101133.09
2023-05-16T12:25:29.221Z,101145.34
2023-05-16T12:28:33.349Z,101140.69
2023-05-16T12:31:37.326Z,101148.19
2023-05-16T12:34:38.718Z,101143.47
2023-05-16T12:37:43.453Z,101129.81
2023-05-16T12:40:46.100Z,101145.31
2023-05-16T12:43:47.861Z,101145.34
2023-05-16T12:46:51.226Z,101140.50
2023-05-16T12:49:53.641Z,101146.41
2023-05-16T12:53:00.910Z,101155.53
2023-05-16T12:56:02.327Z,101152.69
2023-05-16T12:59:03.642Z,101154.75
2023-05-16T13:02:05.434Z,101150.25
2023-05-16T13:05:07.444Z,101149.06
2023-05-16T13:08:09.458Z,101148.03
2023-05-16T13:11:10.835Z,101142.97
2023-05-16T13:14:12.238Z,101147.75
2023-05-16T13:17:13.556Z,101153.94
2023-05-16T13:20:15.530Z,101155.56
2023-05-16T13:23:17.755Z,101156.41
2023-05-16T13:26:19.088Z,101164.56
2023-05-16T13:29:20.659Z,101145.44
2023-05-16T13:32:22.393Z,101136.81
2023-05-16T13:35:23.730Z,101136.56
2023-05-16T13:38:25.816Z,101137.63
2023-05-16T13:41:27.143Z,101137.81
2023-05-16T13:44:28.633Z,101134.28
2023-05-16T13:47:30.468Z,101145.59
2023-05-16T13:50:33.824Z,101149.16
2023-05-16T13:53:36.286Z,101163.59
2023-05-16T13:56:37.756Z,101170.50
2023-05-16T14:00:05.663Z,101167.13
2023-05-16T14:03:00.838Z,101161.97
2023-05-16T14:06:02.236Z,101155.44
2023-05-16T14:09:04.477Z,101166.66
2023-05-16T14:12:07.079Z,101164.47
2023-05-16T14:15:09.223Z,101155.50
2023-05-16T14:18:10.782Z,101156.34
2023-05-16T14:21:12.638Z,101157.56
2023-05-16T14:24:14.830Z,101161.22
2023-05-16T14:27:16.361Z,101164.91
2023-05-16T14:30:17.901Z,101176.34
2023-05-16T14:33:19.351Z,101183.03
2023-05-16T14:36:20.801Z,101189.50
2023-05-16T14:39:22.904Z,101187.00
2023-05-16T14:42:24.366Z,101179.72
2023-05-16T14:45:25.996Z,101174.28
2023-05-16T14:48:27.677Z,101188.66
2023-05-16T14:51:29.174Z,101184.38
2023-05-16T14:54:31.300Z,101181.00
2023-05-16T14:57:32.601Z,101182.66
2023-05-16T15:00:33.965Z,101169.19
2023-05-16T15:03:53.747Z,101171.72
2023-05-16T15:06:56.512Z,101173.50
2023-05-16T15:09:58.618Z,101159.59
2023-05-16T15:12:59.980Z,101171.13
2023-05-16T15:16:01.386Z,101168.69
2023-05-16T15:19:03.098Z,101165.44
2023-05-16T15:22:07.055Z,101166.75
2023-05-16T15:25:10.344Z,101165.22
2023-05-16T15:28:11.681Z,101170.16
2023-05-16T15:31:13.488Z,101160.41
2023-05-16T15:34:15.019Z,101153.09
2023-05-16T15:37:17.184Z,101160.00
2023-05-16T15:40:22.296Z,101164.25
2023-05-16T15:43:26.357Z,101170.69
2023-05-16T15:46:29.900Z,101161.22
2023-05-16T15:49:31.401Z,101180.50
2023-05-16T15:52:35.184Z,101175.19
2023-05-16T15:55:38.478Z,101182.78
2023-05-16T15:58:39.862Z,101177.38
2023-05-16T16:01:41.397Z,101180.91
2023-05-16T16:04:42.851Z,101173.19
2023-05-16T16:07:44.635Z,101183.91
2023-05-16T16:10:46.994Z,101188.00
2023-05-16T16:13:48.718Z,101189.03
2023-05-16T16:16:50.477Z,101174.34
2023-05-16T16:19:52.190Z,101192.41
2023-05-16T16:22:53.733Z,101186.34
2023-05-16T16:25:55.842Z,101199.44
2023-05-16T16:28:57.188Z,101191.44
2023-05-16T16:31:58.830Z,101190.13
2023-05-16T16:35:00.937Z,101183.88
2023-05-16T16:38:07.105Z,101191.75
2023-05-16T16:41:10.388Z,101186.78
2023-05-16T16:44:13.133Z,101191.63
2023-05-16T16:47:14.593Z,101198.34
2023-05-16T16:50:16.032Z,101185.00
2023-05-16T16:53:18.052Z,101184.34
2023-05-16T16:56:20.907Z,101182.25
2023-05-16T16:59:22.255Z,101181.72
2023-05-16T17:02:23.640Z,101182.22
2023-05-16T17:05:25.383Z,101172.94
2023-05-16T17:08:26.886Z,101185.03
2023-05-16T17:11:29.079Z,101178.41
2023-05-16T17:14:30.783Z,101175.66
2023-05-16T17:17:32.115Z,101187.31
2023-05-16T17:20:33.709Z,101186.28
2023-05-16T17:23:35.063Z,101187.13
2023-05-16T17:26:37.158Z,101183.59
2023-05-16T17:29:38.668Z,101187.44
2023-05-16T17:32:40.100Z,101199.31
2023-05-16T17:35:41.524Z,101207.41
2023-05-16T17:38:42.843Z,101196.06
2023-05-16T17:41:45.161Z,101219.06
2023-05-16T17:44:46.739Z,101228.75
2023-05-16T17:47:48.452Z,101237.59
2023-05-16T17:50:49.863Z,101229.09
2023-05-16T17:53:51.967Z,101238.47
2023-05-16T17:56:54.496Z,101237.66
2023-05-16T17:59:56.010Z,101237.38
2023-05-16T18:02:57.577Z,101251.75
2023-05-16T18:05:59.226Z,101264.75
2023-05-16T18:09:01.121Z,101265.84
2023-05-16T18:12:03.816Z,101265.78
2023-05-16T18:15:06.422Z,101277.72
2023-05-16T18:18:08.032Z,101284.84
2023-05-16T18:21:09.492Z,101285.91
2023-05-16T18:24:12.434Z,101292.78
2023-05-16T18:27:15.401Z,101302.09
2023-05-16T18:30:16.880Z,101309.00
2023-05-16T18:33:18.296Z,101308.06
2023-05-16T18:36:19.780Z,101310.28
2023-05-16T18:39:21.310Z,101330.06
2023-05-16T18:42:24.922Z,101324.81
2023-05-16T18:45:26.585Z,101325.84
2023-05-16T18:48:28.215Z,101321.41
2023-05-16T18:51:30.150Z,101319.91
2023-05-16T18:54:31.451Z,101324.88
2023-05-16T18:57:34.125Z,101324.38
2023-05-16T19:00:35.504Z,101327.00
2023-05-16T19:03:36.969Z,101333.16
2023-05-16T19:06:38.458Z,101341.28
2023-05-16T19:09:39.768Z,101340.16
2023-05-16T19:12:46.011Z,101345.84
2023-05-16T19:15:47.340Z,101366.88
2023-05-16T19:18:49.430Z,101359.16
2023-05-16T19:21:51.130Z,101364.59
2023-05-16T19:24:52.580Z,101380.25
2023-05-16T19:27:54.751Z,101381.41
2023-05-16T19:30:56.388Z,101381.47
2023-05-16T19:33:57.855Z,101392.03
2023-05-16T19:37:03.198Z,101393.75
2023-05-16T19:40:05.881Z,101392.69
2023-05-16T19:43:08.567Z,101408.91
2023-05-16T19:46:10.586Z,101406.72
2023-05-16T19:49:12.249Z,101416.84
2023-05-16T19:52:14.246Z,101407.75
2023-05-16T19:55:16.075Z,101420.06
2023-05-16T19:58:18.508Z,101424.22
2023-05-16T20:01:20.228Z,101429.47
2023-05-16T20:04:22.150Z,101430.56
2023-05-16T20:07:23.636Z,101430.56
2023-05-16T20:10:24.969Z,101427.97
2023-05-16T20:13:27.094Z,101429.13
2023-05-16T20:16:28.460Z,101440.06
2023-05-16T20:19:29.959Z,101438.06
2023-05-16T20:22:31.457Z,101446.03
2023-05-16T20:25:32.811Z,101438.53
2023-05-16T20:28:34.942Z,101452.00
2023-05-16T20:31:36.311Z,101452.25
2023-05-16T20:34:40.287Z,101457.50
2023-05-16T20:37:42.907Z,101442.59
2023-05-16T20:40:44.373Z,101441.63
2023-05-16T20:43:46.508Z,101440.59
2023-05-16T20:46:47.855Z,101435.81
2023-05-16T20:49:49.304Z,101437.97
2023-05-16T20:52:50.701Z,101450.34
2023-05-16T20:55:52.224Z,101442.38
2023-05-16T20:58:54.443Z,101444.97
2023-05-16T21:01:56.679Z,101444.75
2023-05-16T21:05:02.234Z,101448.72
2023-05-16T21:08:11.759Z,101446.91
2023-05-16T21:11:13.226Z,101460.31
2023-05-16T21:14:15.436Z,101461.13
2023-05-16T21:17:16.852Z,101452.81
2023-05-16T21:20:18.433Z,101449.47
2023-05-16T21:23:20.178Z,101451.50
2023-05-16T21:26:21.581Z,101458.66
2023-05-16T21:29:23.682Z,101458.31
2023-05-16T21:32:27.522Z,101464.63
2023-05-16T21:35:29.331Z,101465.81
2023-05-16T21:38:30.926Z,101464.28
2023-05-16T21:41:32.402Z,101468.91
2023-05-16T21:44:34.551Z,101471.41
2023-05-16T21:47:36.085Z,101466.03
2023-05-16T21:50:37.647Z,101477.13
2023-05-16T21:53:39.004Z,101470.31
2023-05-16T21:56:40.525Z,101464.47
2023-05-16T21:59:42.466Z,101472.78
2023-05-16T22:02:44.477Z,101475.94
2023-05-16T22:05:46.387Z,101463.97
2023-05-16T22:08:47.832Z,101479.34
2023-05-16T22:11:49.199Z,101478.41
2023-05-16T22:14:51.352Z,101479.13
2023-05-16T22:17:52.736Z,101487.34
2023-05-16T22:20:54.223Z,101480.41
2023-05-16T22:23:55.602Z,101480.63
2023-05-16T22:26:57.047Z,101478.38
2023-05-16T22:29:59.039Z,101478.84
2023-05-16T22:33:00.730Z,101473.59
2023-05-16T22:36:02.644Z,101475.13
2023-05-16T22:39:04.141Z,101483.34
2023-05-16T22:42:06.111Z,101479.44
2023-05-16T22:45:08.825Z,101472.88
2023-05-16T22:48:10.435Z,101482.78
2023-05-16T22:51:11.926Z,101483.84
2023-05-16T22:54:13.411Z,101484.53
2023-05-16T22:57:14.815Z,101478.16
2023-05-16T23:00:22.089Z,101484.09
2023-05-16T23:03:23.622Z,101478.63
2023-05-16T23:06:25.161Z,101476.50
2023-05-16T23:09:26.685Z,101480.28
2023-05-16T23:12:28.118Z,101489.81
2023-05-16T23:15:30.469Z,101488.84
2023-05-16T23:18:32.156Z,101486.53
2023-05-16T23:21:33.762Z,101488.44
2023-05-16T23:24:35.076Z,101491.66
2023-05-16T23:27:36.523Z,101501.16
2023-05-16T23:30:38.641Z,101499.25
2023-05-16T23:33:39.968Z,101502.75
2023-05-16T23:36:41.306Z,101504.13
2023-05-16T23:39:42.767Z,101509.38
2023-05-16T23:42:44.362Z,101512.34
2023-05-16T23:45:46.632Z,101507.25
2023-05-16T23:48:48.194Z,101496.91
2023-05-16T23:51:57.259Z,101501.94
2023-05-16T23:54:59.625Z,101509.97
2023-05-16T23:58:01.073Z,101507.59
